sensor_id;sensor_type;location;lat;lon;timestamp;P1;durP1;ratioP1;P2;durP2;ratioP2
2620;SDS011;1320;48.128;11.592;2023-09-12T00:01:22;13.27;;;10.67;;
2620;SDS011;1320;48.128;11.592;2023-09-12T00:03:49;13.70;;;12.30;;
2620;SDS011;1320;48.128;11.592;2023-09-12T00:06:14;12.43;;;11.20;;
2620;SDS011;1320;48.128;11.592;2023-09-12T00:08:40;12.80;;;11.13;;
2620;SDS011;1320;48.128;11.592;2023-09-12T00:11:07;12.93;;;11.60;;
2620;SDS011;1320;48.128;11.592;2023-09-12T00:13:40;12.40;;;10.77;;
2620;SDS011;1320;48.128;11.592;2023-09-12T00:16:06;14.13;;;11.73;;
2620;SDS011;1320;48.128;11.592;2023-09-12T00:18:34;14.50;;;12.37;;
2620;SDS011;1320;48.128;11.592;2023-09-12T00:21:00;12.70;;;11.43;;
2620;SDS011;1320;48.128;11.592;2023-09-12T00:23:26;12.97;;;11.67;;
2620;SDS011;1320;48.128;11.592;2023-09-12T00:25:52;12.50;;;11.20;;
2620;SDS011;1320;48.128;11.592;2023-09-12T00:28:18;12.40;;;11.07;;
2620;SDS011;1320;48.128;11.592;2023-09-12T00:30:45;14.70;;;13.10;;
2620;SDS011;1320;48.128;11.592;2023-09-12T00:33:11;12.23;;;10.93;;
2620;SDS011;1320;48.128;11.592;2023-09-12T00:35:36;12.80;;;11.50;;
2620;SDS011;1320;48.128;11.592;2023-09-12T00:38:02;13.37;;;10.63;;
2620;SDS011;1320;48.128;11.592;2023-09-12T00:40:28;13.93;;;11.03;;
2620;SDS011;1320;48.128;11.592;2023-09-12T00:42:54;14.47;;;11.57;;
2620;SDS011;1320;48.128;11.592;2023-09-12T00:45:20;12.20;;;11.00;;
2620;SDS011;1320;48.128;11.592;2023-09-12T00:47:45;13.23;;;11.93;;
2620;SDS011;1320;48.128;11.592;2023-09-12T00:50:12;15.23;;;12.20;;
2620;SDS011;1320;48.128;11.592;2023-09-12T00:52:39;12.07;;;10.87;;
2620;SDS011;1320;48.128;11.592;2023-09-12T00:55:07;12.83;;;11.40;;
2620;SDS011;1320;48.128;11.592;2023-09-12T00:57:33;15.10;;;13.10;;
2620;SDS011;1320;48.128;11.592;2023-09-12T01:00:01;12.57;;;11.37;;
2620;SDS011;1320;48.128;11.592;2023-09-12T01:02:36;12.37;;;10.50;;
2620;SDS011;1320;48.128;11.592;2023-09-12T01:05:02;12.67;;;11.40;;
2620;SDS011;1320;48.128;11.592;2023-09-12T01:07:29;12.40;;;10.20;;
2620;SDS011;1320;48.128;11.592;2023-09-12T01:09:55;14.27;;;11.93;;
2620;SDS011;1320;48.128;11.592;2023-09-12T01:12:21;14.70;;;10.90;;
2620;SDS011;1320;48.128;11.592;2023-09-12T01:14:47;16.00;;;11.83;;
2620;SDS011;1320;48.128;11.592;2023-09-12T01:17:12;13.10;;;11.30;;
2620;SDS011;1320;48.128;11.592;2023-09-12T01:19:38;13.13;;;11.73;;
2620;SDS011;1320;48.128;11.592;2023-09-12T01:27:38;14.60;;;12.20;;
2620;SDS011;1320;48.128;11.592;2023-09-12T01:30:15;14.00;;;11.23;;
2620;SDS011;1320;48.128;11.592;2023-09-12T01:32:50;13.03;;;11.73;;
2620;SDS011;1320;48.128;11.592;2023-09-12T01:35:16;12.03;;;10.27;;
2620;SDS011;1320;48.128;11.592;2023-09-12T01:37:41;12.50;;;11.20;;
2620;SDS011;1320;48.128;11.592;2023-09-12T01:40:07;11.00;;;9.90;;
2620;SDS011;1320;48.128;11.592;2023-09-12T01:42:37;12.20;;;10.90;;
2620;SDS011;1320;48.128;11.592;2023-09-12T01:45:05;11.30;;;9.83;;
2620;SDS011;1320;48.128;11.592;2023-09-12T01:47:34;13.87;;;9.37;;
2620;SDS011;1320;48.128;11.592;2023-09-12T01:50:00;12.20;;;11.10;;
2620;SDS011;1320;48.128;11.592;2023-09-12T01:52:27;11.87;;;10.67;;
2620;SDS011;1320;48.128;11.592;2023-09-12T01:54:53;12.07;;;10.83;;
2620;SDS011;1320;48.128;11.592;2023-09-12T01:57:20;12.00;;;10.80;;
2620;SDS011;1320;48.128;11.592;2023-09-12T01:59:47;12.50;;;11.20;;
2620;SDS011;1320;48.128;11.592;2023-09-12T02:02:14;12.60;;;11.33;;
2620;SDS011;1320;48.128;11.592;2023-09-12T02:04:47;13.37;;;11.70;;
2620;SDS011;1320;48.128;11.592;2023-09-12T02:07:20;15.90;;;11.80;;
2620;SDS011;1320;48.128;11.592;2023-09-12T02:09:48;13.97;;;11.03;;
2620;SDS011;1320;48.128;11.592;2023-09-12T02:12:13;12.80;;;11.43;;
2620;SDS011;1320;48.128;11.592;2023-09-12T02:14:39;14.20;;;11.40;;
2620;SDS011;1320;48.128;11.592;2023-09-12T02:17:05;12.63;;;11.33;;
2620;SDS011;1320;48.128;11.592;2023-09-12T02:19:30;11.50;;;10.30;;
2620;SDS011;1320;48.128;11.592;2023-09-12T02:21:56;12.93;;;10.90;;
2620;SDS011;1320;48.128;11.592;2023-09-12T02:24:21;12.97;;;11.07;;
2620;SDS011;1320;48.128;11.592;2023-09-12T02:26:47;13.00;;;11.53;;
2620;SDS011;1320;48.128;11.592;2023-09-12T02:29:13;13.47;;;11.30;;
2620;SDS011;1320;48.128;11.592;2023-09-12T02:31:38;13.03;;;10.70;;
2620;SDS011;1320;48.128;11.592;2023-09-12T02:34:04;13.30;;;11.60;;
2620;SDS011;1320;48.128;11.592;2023-09-12T02:36:30;11.90;;;10.70;;
2620;SDS011;1320;48.128;11.592;2023-09-12T02:38:56;12.97;;;10.80;;
2620;SDS011;1320;48.128;11.592;2023-09-12T02:41:22;14.03;;;10.70;;
2620;SDS011;1320;48.128;11.592;2023-09-12T02:43:47;11.37;;;10.17;;
2620;SDS011;1320;48.128;11.592;2023-09-12T02:46:13;12.80;;;10.23;;
2620;SDS011;1320;48.128;11.592;2023-09-12T02:48:38;14.83;;;11.33;;
2620;SDS011;1320;48.128;11.592;2023-09-12T02:51:04;13.57;;;11.13;;
2620;SDS011;1320;48.128;11.592;2023-09-12T02:53:30;14.40;;;10.93;;
2620;SDS011;1320;48.128;11.592;2023-09-12T02:55:55;12.33;;;10.53;;
2620;SDS011;1320;48.128;11.592;2023-09-12T02:58:21;11.73;;;10.47;;
2620;SDS011;1320;48.128;11.592;2023-09-12T03:00:46;15.00;;;12.77;;
2620;SDS011;1320;48.128;11.592;2023-09-12T03:03:15;12.43;;;10.93;;
2620;SDS011;1320;48.128;11.592;2023-09-12T03:05:42;12.70;;;11.40;;
2620;SDS011;1320;48.128;11.592;2023-09-12T03:08:08;13.20;;;11.90;;
2620;SDS011;1320;48.128;11.592;2023-09-12T03:10:33;13.20;;;10.77;;
2620;SDS011;1320;48.128;11.592;2023-09-12T03:12:59;11.60;;;10.30;;
2620;SDS011;1320;48.128;11.592;2023-09-12T03:15:24;12.07;;;10.87;;
2620;SDS011;1320;48.128;11.592;2023-09-12T03:17:50;12.90;;;11.60;;
2620;SDS011;1320;48.128;11.592;2023-09-12T03:20:16;17.07;;;12.20;;
2620;SDS011;1320;48.128;11.592;2023-09-12T03:22:41;12.20;;;10.90;;
2620;SDS011;1320;48.128;11.592;2023-09-12T03:25:07;11.27;;;9.97;;
2620;SDS011;1320;48.128;11.592;2023-09-12T03:27:33;14.40;;;12.20;;
2620;SDS011;1320;48.128;11.592;2023-09-12T03:29:58;14.67;;;12.97;;
2620;SDS011;1320;48.128;11.592;2023-09-12T03:32:24;13.67;;;12.20;;
2620;SDS011;1320;48.128;11.592;2023-09-12T03:34:50;12.40;;;11.10;;
2620;SDS011;1320;48.128;11.592;2023-09-12T03:37:15;15.60;;;12.70;;
2620;SDS011;1320;48.128;11.592;2023-09-12T03:39:41;13.60;;;11.47;;
2620;SDS011;1320;48.128;11.592;2023-09-12T03:42:06;12.87;;;11.50;;
2620;SDS011;1320;48.128;11.592;2023-09-12T03:44:32;16.50;;;12.90;;
2620;SDS011;1320;48.128;11.592;2023-09-12T03:46:58;13.10;;;11.80;;
2620;SDS011;1320;48.128;11.592;2023-09-12T03:49:24;12.53;;;11.23;;
2620;SDS011;1320;48.128;11.592;2023-09-12T03:51:49;14.10;;;11.63;;
2620;SDS011;1320;48.128;11.592;2023-09-12T03:54:15;12.53;;;10.30;;
2620;SDS011;1320;48.128;11.592;2023-09-12T03:56:40;13.83;;;11.27;;
2620;SDS011;1320;48.128;11.592;2023-09-12T03:59:06;12.77;;;11.50;;
2620;SDS011;1320;48.128;11.592;2023-09-12T04:01:32;13.50;;;11.07;;
2620;SDS011;1320;48.128;11.592;2023-09-12T04:03:57;12.03;;;10.70;;
2620;SDS011;1320;48.128;11.592;2023-09-12T04:06:23;12.93;;;11.53;;
2620;SDS011;1320;48.128;11.592;2023-09-12T04:08:49;13.10;;;11.80;;
2620;SDS011;1320;48.128;11.592;2023-09-12T04:11:14;12.30;;;11.00;;
2620;SDS011;1320;48.128;11.592;2023-09-12T04:13:40;13.20;;;11.80;;
2620;SDS011;1320;48.128;11.592;2023-09-12T04:16:06;14.67;;;12.00;;
2620;SDS011;1320;48.128;11.592;2023-09-12T04:18:32;13.47;;;11.70;;
2620;SDS011;1320;48.128;11.592;2023-09-12T04:20:57;12.60;;;11.30;;
2620;SDS011;1320;48.128;11.592;2023-09-12T04:23:24;13.50;;;11.37;;
2620;SDS011;1320;48.128;11.592;2023-09-12T04:25:50;16.80;;;11.07;;
2620;SDS011;1320;48.128;11.592;2023-09-12T04:28:16;14.70;;;11.10;;
2620;SDS011;1320;48.128;11.592;2023-09-12T04:30:41;12.37;;;11.17;;
2620;SDS011;1320;48.128;11.592;2023-09-12T04:33:07;17.57;;;11.67;;
2620;SDS011;1320;48.128;11.592;2023-09-12T04:35:34;13.27;;;11.10;;
2620;SDS011;1320;48.128;11.592;2023-09-12T04:37:59;13.63;;;11.87;;
2620;SDS011;1320;48.128;11.592;2023-09-12T04:40:25;12.70;;;11.40;;
2620;SDS011;1320;48.128;11.592;2023-09-12T04:42:51;12.87;;;11.53;;
2620;SDS011;1320;48.128;11.592;2023-09-12T04:45:16;14.73;;;12.20;;
2620;SDS011;1320;48.128;11.592;2023-09-12T04:47:42;13.63;;;11.67;;
2620;SDS011;1320;48.128;11.592;2023-09-12T04:50:08;14.10;;;11.80;;
2620;SDS011;1320;48.128;11.592;2023-09-12T04:52:33;13.47;;;12.07;;
2620;SDS011;1320;48.128;11.592;2023-09-12T04:54:59;13.60;;;11.13;;
2620;SDS011;1320;48.128;11.592;2023-09-12T04:57:25;12.07;;;10.87;;
2620;SDS011;1320;48.128;11.592;2023-09-12T04:59:53;12.20;;;10.83;;
2620;SDS011;1320;48.128;11.592;2023-09-12T05:02:18;12.40;;;10.40;;
2620;SDS011;1320;48.128;11.592;2023-09-12T05:04:44;14.57;;;11.60;;
2620;SDS011;1320;48.128;11.592;2023-09-12T05:07:10;14.33;;;12.20;;
2620;SDS011;1320;48.128;11.592;2023-09-12T05:09:35;13.27;;;11.50;;
2620;SDS011;1320;48.128;11.592;2023-09-12T05:12:01;14.40;;;12.87;;
2620;SDS011;1320;48.128;11.592;2023-09-12T05:14:26;13.10;;;11.70;;
2620;SDS011;1320;48.128;11.592;2023-09-12T05:16:52;12.60;;;11.00;;
2620;SDS011;1320;48.128;11.592;2023-09-12T05:19:18;13.83;;;12.30;;
2620;SDS011;1320;48.128;11.592;2023-09-12T05:21:43;13.30;;;11.73;;
2620;SDS011;1320;48.128;11.592;2023-09-12T05:24:10;13.80;;;12.10;;
2620;SDS011;1320;48.128;11.592;2023-09-12T05:26:35;15.70;;;12.50;;
2620;SDS011;1320;48.128;11.592;2023-09-12T05:29:01;14.67;;;11.67;;
2620;SDS011;1320;48.128;11.592;2023-09-12T05:31:27;15.20;;;12.30;;
2620;SDS011;1320;48.128;11.592;2023-09-12T05:33:53;14.37;;;12.87;;
2620;SDS011;1320;48.128;11.592;2023-09-12T05:36:18;15.13;;;12.13;;
2620;SDS011;1320;48.128;11.592;2023-09-12T05:38:44;17.90;;;12.10;;
2620;SDS011;1320;48.128;11.592;2023-09-12T05:41:10;14.57;;;12.30;;
2620;SDS011;1320;48.128;11.592;2023-09-12T05:43:35;13.20;;;11.63;;
2620;SDS011;1320;48.128;11.592;2023-09-12T05:46:01;13.63;;;11.37;;
2620;SDS011;1320;48.128;11.592;2023-09-12T05:48:27;15.00;;;12.90;;
2620;SDS011;1320;48.128;11.592;2023-09-12T05:50:52;15.13;;;12.90;;
2620;SDS011;1320;48.128;11.592;2023-09-12T05:53:18;14.17;;;12.77;;
2620;SDS011;1320;48.128;11.592;2023-09-12T05:55:44;14.80;;;12.87;;
2620;SDS011;1320;48.128;11.592;2023-09-12T05:58:10;15.70;;;11.97;;
2620;SDS011;1320;48.128;11.592;2023-09-12T06:00:35;13.27;;;11.87;;
2620;SDS011;1320;48.128;11.592;2023-09-12T06:03:01;13.60;;;11.60;;
2620;SDS011;1320;48.128;11.592;2023-09-12T06:05:26;14.77;;;12.67;;
2620;SDS011;1320;48.128;11.592;2023-09-12T06:07:52;16.67;;;13.20;;
2620;SDS011;1320;48.128;11.592;2023-09-12T06:10:18;14.67;;;12.07;;
2620;SDS011;1320;48.128;11.592;2023-09-12T06:12:43;13.03;;;11.63;;
2620;SDS011;1320;48.128;11.592;2023-09-12T06:15:09;13.73;;;11.70;;
2620;SDS011;1320;48.128;11.592;2023-09-12T06:17:35;13.07;;;11.77;;
2620;SDS011;1320;48.128;11.592;2023-09-12T06:20:01;13.17;;;10.67;;
2620;SDS011;1320;48.128;11.592;2023-09-12T06:22:28;13.00;;;10.90;;
2620;SDS011;1320;48.128;11.592;2023-09-12T06:24:54;13.03;;;11.50;;
2620;SDS011;1320;48.128;11.592;2023-09-12T06:27:19;15.73;;;10.63;;
2620;SDS011;1320;48.128;11.592;2023-09-12T06:29:45;11.60;;;10.40;;
2620;SDS011;1320;48.128;11.592;2023-09-12T06:32:15;13.27;;;11.83;;
2620;SDS011;1320;48.128;11.592;2023-09-12T06:34:41;14.27;;;12.03;;
2620;SDS011;1320;48.128;11.592;2023-09-12T06:37:07;15.07;;;12.53;;
2620;SDS011;1320;48.128;11.592;2023-09-12T06:39:33;11.97;;;10.80;;
2620;SDS011;1320;48.128;11.592;2023-09-12T06:41:58;16.50;;;12.50;;
2620;SDS011;1320;48.128;11.592;2023-09-12T06:44:24;12.37;;;11.00;;
2620;SDS011;1320;48.128;11.592;2023-09-12T06:46:50;11.43;;;10.23;;
2620;SDS011;1320;48.128;11.592;2023-09-12T06:49:15;17.43;;;12.87;;
2620;SDS011;1320;48.128;11.592;2023-09-12T06:51:41;18.33;;;12.67;;
2620;SDS011;1320;48.128;11.592;2023-09-12T06:54:06;15.17;;;12.53;;
2620;SDS011;1320;48.128;11.592;2023-09-12T06:56:32;13.07;;;11.67;;
2620;SDS011;1320;48.128;11.592;2023-09-12T06:59:02;17.20;;;13.60;;
2620;SDS011;1320;48.128;11.592;2023-09-12T07:01:29;13.63;;;10.90;;
2620;SDS011;1320;48.128;11.592;2023-09-12T07:03:55;15.73;;;11.00;;
2620;SDS011;1320;48.128;11.592;2023-09-12T07:06:21;14.97;;;13.03;;
2620;SDS011;1320;48.128;11.592;2023-09-12T07:08:47;12.43;;;11.20;;
2620;SDS011;1320;48.128;11.592;2023-09-12T07:11:13;15.20;;;11.30;;
2620;SDS011;1320;48.128;11.592;2023-09-12T07:13:39;12.40;;;11.10;;
2620;SDS011;1320;48.128;11.592;2023-09-12T07:16:04;14.03;;;10.60;;
2620;SDS011;1320;48.128;11.592;2023-09-12T07:18:30;13.00;;;11.60;;
2620;SDS011;1320;48.128;11.592;2023-09-12T07:21:00;13.03;;;11.00;;
2620;SDS011;1320;48.128;11.592;2023-09-12T07:23:26;14.30;;;10.20;;
2620;SDS011;1320;48.128;11.592;2023-09-12T07:25:53;23.93;;;11.10;;
2620;SDS011;1320;48.128;11.592;2023-09-12T07:28:20;11.80;;;10.60;;
2620;SDS011;1320;48.128;11.592;2023-09-12T07:30:46;13.10;;;11.80;;
2620;SDS011;1320;48.128;11.592;2023-09-12T07:33:12;14.33;;;10.90;;
2620;SDS011;1320;48.128;11.592;2023-09-12T07:35:38;16.87;;;11.07;;
2620;SDS011;1320;48.128;11.592;2023-09-12T07:38:04;10.70;;;9.60;;
2620;SDS011;1320;48.128;11.592;2023-09-12T07:40:29;13.77;;;11.10;;
2620;SDS011;1320;48.128;11.592;2023-09-12T07:42:55;13.30;;;11.77;;
2620;SDS011;1320;48.128;11.592;2023-09-12T07:45:21;15.97;;;11.47;;
2620;SDS011;1320;48.128;11.592;2023-09-12T07:47:46;11.30;;;9.33;;
2620;SDS011;1320;48.128;11.592;2023-09-12T07:50:13;13.07;;;11.77;;
2620;SDS011;1320;48.128;11.592;2023-09-12T07:52:39;12.47;;;9.70;;
2620;SDS011;1320;48.128;11.592;2023-09-12T07:55:05;13.47;;;11.00;;
2620;SDS011;1320;48.128;11.592;2023-09-12T07:57:32;13.40;;;9.93;;
2620;SDS011;1320;48.128;11.592;2023-09-12T07:59:59;12.80;;;10.27;;
2620;SDS011;1320;48.128;11.592;2023-09-12T08:02:25;11.17;;;10.07;;
2620;SDS011;1320;48.128;11.592;2023-09-12T08:04:51;14.83;;;10.60;;
2620;SDS011;1320;48.128;11.592;2023-09-12T08:07:16;10.50;;;9.60;;
2620;SDS011;1320;48.128;11.592;2023-09-12T08:09:50;12.07;;;10.50;;
2620;SDS011;1320;48.128;11.592;2023-09-12T08:12:25;10.80;;;9.63;;
2620;SDS011;1320;48.128;11.592;2023-09-12T08:14:52;11.13;;;9.67;;
2620;SDS011;1320;48.128;11.592;2023-09-12T08:17:18;10.40;;;9.30;;
2620;SDS011;1320;48.128;11.592;2023-09-12T08:19:45;10.07;;;9.07;;
2620;SDS011;1320;48.128;11.592;2023-09-12T08:22:11;11.23;;;9.57;;
2620;SDS011;1320;48.128;11.592;2023-09-12T08:24:37;10.40;;;8.80;;
2620;SDS011;1320;48.128;11.592;2023-09-12T08:27:07;11.23;;;10.10;;
2620;SDS011;1320;48.128;11.592;2023-09-12T08:29:34;11.30;;;9.73;;
2620;SDS011;1320;48.128;11.592;2023-09-12T08:32:00;10.13;;;9.10;;
2620;SDS011;1320;48.128;11.592;2023-09-12T08:34:26;10.20;;;9.17;;
2620;SDS011;1320;48.128;11.592;2023-09-12T08:36:52;10.40;;;9.20;;
2620;SDS011;1320;48.128;11.592;2023-09-12T08:39:18;12.10;;;9.57;;
2620;SDS011;1320;48.128;11.592;2023-09-12T08:41:52;11.80;;;10.47;;
2620;SDS011;1320;48.128;11.592;2023-09-12T08:44:18;10.50;;;9.40;;
2620;SDS011;1320;48.128;11.592;2023-09-12T08:46:45;10.20;;;9.20;;
2620;SDS011;1320;48.128;11.592;2023-09-12T08:49:12;8.90;;;8.07;;
2620;SDS011;1320;48.128;11.592;2023-09-12T08:51:38;9.97;;;8.97;;
2620;SDS011;1320;48.128;11.592;2023-09-12T08:54:04;9.30;;;8.40;;
2620;SDS011;1320;48.128;11.592;2023-09-12T08:56:30;9.60;;;8.70;;
2620;SDS011;1320;48.128;11.592;2023-09-12T08:58:58;10.20;;;8.60;;
2620;SDS011;1320;48.128;11.592;2023-09-12T09:01:25;9.33;;;8.53;;
2620;SDS011;1320;48.128;11.592;2023-09-12T09:03:54;9.43;;;8.27;;
2620;SDS011;1320;48.128;11.592;2023-09-12T09:06:21;8.70;;;7.90;;
2620;SDS011;1320;48.128;11.592;2023-09-12T09:08:48;9.70;;;8.80;;
2620;SDS011;1320;48.128;11.592;2023-09-12T09:11:15;10.17;;;8.70;;
2620;SDS011;1320;48.128;11.592;2023-09-12T09:13:41;10.40;;;9.33;;
2620;SDS011;1320;48.128;11.592;2023-09-12T09:18:56;9.10;;;8.20;;
2620;SDS011;1320;48.128;11.592;2023-09-12T09:21:34;8.57;;;7.77;;
2620;SDS011;1320;48.128;11.592;2023-09-12T09:24:07;10.00;;;9.00;;
2620;SDS011;1320;48.128;11.592;2023-09-12T09:29:10;9.43;;;8.43;;
2620;SDS011;1320;48.128;11.592;2023-09-12T09:31:42;9.47;;;8.47;;
2620;SDS011;1320;48.128;11.592;2023-09-12T09:34:16;9.30;;;8.40;;
2620;SDS011;1320;48.128;11.592;2023-09-12T09:36:50;9.77;;;8.87;;
2620;SDS011;1320;48.128;11.592;2023-09-12T09:39:23;8.80;;;8.10;;
2620;SDS011;1320;48.128;11.592;2023-09-12T09:41:51;9.73;;;7.90;;
2620;SDS011;1320;48.128;11.592;2023-09-12T09:44:22;8.27;;;7.40;;
2620;SDS011;1320;48.128;11.592;2023-09-12T09:46:51;8.70;;;7.90;;
2620;SDS011;1320;48.128;11.592;2023-09-12T09:49:20;8.73;;;7.93;;
2620;SDS011;1320;48.128;11.592;2023-09-12T09:51:47;9.07;;;8.17;;
2620;SDS011;1320;48.128;11.592;2023-09-12T09:54:13;9.40;;;8.33;;
2620;SDS011;1320;48.128;11.592;2023-09-12T09:59:18;9.27;;;8.33;;
2620;SDS011;1320;48.128;11.592;2023-09-12T10:01:46;12.23;;;7.97;;
2620;SDS011;1320;48.128;11.592;2023-09-12T10:04:13;8.80;;;8.00;;
2620;SDS011;1320;48.128;11.592;2023-09-12T10:06:41;9.03;;;8.23;;
2620;SDS011;1320;48.128;11.592;2023-09-12T10:09:09;8.47;;;7.30;;
2620;SDS011;1320;48.128;11.592;2023-09-12T10:11:37;8.33;;;7.53;;
2620;SDS011;1320;48.128;11.592;2023-09-12T10:14:04;8.30;;;7.57;;
2620;SDS011;1320;48.128;11.592;2023-09-12T10:16:34;9.47;;;8.57;;
2620;SDS011;1320;48.128;11.592;2023-09-12T10:24:26;7.40;;;6.73;;
2620;SDS011;1320;48.128;11.592;2023-09-12T10:26:52;9.17;;;8.20;;
2620;SDS011;1320;48.128;11.592;2023-09-12T10:29:20;10.43;;;9.27;;
2620;SDS011;1320;48.128;11.592;2023-09-12T10:31:47;8.00;;;7.20;;
2620;SDS011;1320;48.128;11.592;2023-09-12T10:34:14;14.87;;;13.47;;
2620;SDS011;1320;48.128;11.592;2023-09-12T10:36:41;9.40;;;8.50;;
2620;SDS011;1320;48.128;11.592;2023-09-12T10:39:08;13.10;;;11.27;;
2620;SDS011;1320;48.128;11.592;2023-09-12T10:41:36;9.30;;;8.40;;
2620;SDS011;1320;48.128;11.592;2023-09-12T10:44:05;9.10;;;8.20;;
2620;SDS011;1320;48.128;11.592;2023-09-12T10:46:38;8.53;;;7.73;;
2620;SDS011;1320;48.128;11.592;2023-09-12T10:49:11;10.83;;;9.50;;
2620;SDS011;1320;48.128;11.592;2023-09-12T10:51:42;10.40;;;9.40;;
2620;SDS011;1320;48.128;11.592;2023-09-12T10:54:12;9.87;;;8.90;;
2620;SDS011;1320;48.128;11.592;2023-09-12T10:56:39;8.60;;;7.80;;
2620;SDS011;1320;48.128;11.592;2023-09-12T11:01:34;10.03;;;8.47;;
2620;SDS011;1320;48.128;11.592;2023-09-12T11:06:49;8.93;;;8.03;;
2620;SDS011;1320;48.128;11.592;2023-09-12T11:11:48;10.43;;;8.53;;
2620;SDS011;1320;48.128;11.592;2023-09-12T11:14:23;9.90;;;8.17;;
2620;SDS011;1320;48.128;11.592;2023-09-12T11:19:43;8.63;;;7.70;;
2620;SDS011;1320;48.128;11.592;2023-09-12T11:22:29;8.80;;;8.00;;
2620;SDS011;1320;48.128;11.592;2023-09-12T11:24:57;8.83;;;7.97;;
2620;SDS011;1320;48.128;11.592;2023-09-12T11:27:30;10.43;;;7.53;;
2620;SDS011;1320;48.128;11.592;2023-09-12T11:30:04;13.23;;;8.13;;
2620;SDS011;1320;48.128;11.592;2023-09-12T11:32:31;10.23;;;8.10;;
2620;SDS011;1320;48.128;11.592;2023-09-12T11:35:04;9.27;;;8.20;;
2620;SDS011;1320;48.128;11.592;2023-09-12T11:37:32;11.60;;;7.17;;
2620;SDS011;1320;48.128;11.592;2023-09-12T11:39:58;13.90;;;8.47;;
2620;SDS011;1320;48.128;11.592;2023-09-12T11:42:24;8.70;;;6.97;;
2620;SDS011;1320;48.128;11.592;2023-09-12T11:44:50;7.50;;;6.73;;
2620;SDS011;1320;48.128;11.592;2023-09-12T11:47:17;8.30;;;7.37;;
2620;SDS011;1320;48.128;11.592;2023-09-12T11:49:43;18.40;;;7.50;;
2620;SDS011;1320;48.128;11.592;2023-09-12T11:52:09;8.50;;;7.63;;
2620;SDS011;1320;48.128;11.592;2023-09-12T11:54:41;10.60;;;7.60;;
2620;SDS011;1320;48.128;11.592;2023-09-12T11:57:08;7.53;;;6.80;;
2620;SDS011;1320;48.128;11.592;2023-09-12T11:59:38;7.77;;;7.03;;
2620;SDS011;1320;48.128;11.592;2023-09-12T12:02:08;8.00;;;6.40;;
2620;SDS011;1320;48.128;11.592;2023-09-12T12:04:35;9.20;;;8.03;;
2620;SDS011;1320;48.128;11.592;2023-09-12T12:07:01;7.83;;;7.00;;
2620;SDS011;1320;48.128;11.592;2023-09-12T12:09:29;10.07;;;7.60;;
2620;SDS011;1320;48.128;11.592;2023-09-12T12:11:55;8.17;;;7.00;;
2620;SDS011;1320;48.128;11.592;2023-09-12T12:14:25;12.00;;;6.80;;
2620;SDS011;1320;48.128;11.592;2023-09-12T12:16:51;8.20;;;7.13;;
2620;SDS011;1320;48.128;11.592;2023-09-12T12:19:18;10.73;;;8.30;;
2620;SDS011;1320;48.128;11.592;2023-09-12T12:21:43;8.80;;;7.67;;
2620;SDS011;1320;48.128;11.592;2023-09-12T12:24:10;16.77;;;14.53;;
2620;SDS011;1320;48.128;11.592;2023-09-12T12:26:40;8.93;;;8.17;;
2620;SDS011;1320;48.128;11.592;2023-09-12T12:29:08;7.40;;;6.70;;
2620;SDS011;1320;48.128;11.592;2023-09-12T12:31:34;9.87;;;8.87;;
2620;SDS011;1320;48.128;11.592;2023-09-12T12:33:59;8.20;;;6.97;;
2620;SDS011;1320;48.128;11.592;2023-09-12T12:36:25;8.63;;;7.17;;
2620;SDS011;1320;48.128;11.592;2023-09-12T12:38:52;8.53;;;7.73;;
2620;SDS011;1320;48.128;11.592;2023-09-12T12:41:22;8.27;;;7.20;;
2620;SDS011;1320;48.128;11.592;2023-09-12T12:43:53;8.33;;;7.03;;
2620;SDS011;1320;48.128;11.592;2023-09-12T12:46:23;8.07;;;7.27;;
2620;SDS011;1320;48.128;11.592;2023-09-12T12:48:49;11.67;;;8.30;;
2620;SDS011;1320;48.128;11.592;2023-09-12T12:51:25;7.40;;;6.70;;
2620;SDS011;1320;48.128;11.592;2023-09-12T12:53:55;7.40;;;6.63;;
2620;SDS011;1320;48.128;11.592;2023-09-12T12:56:28;8.30;;;6.60;;
2620;SDS011;1320;48.128;11.592;2023-09-12T12:58:55;8.40;;;6.77;;
2620;SDS011;1320;48.128;11.592;2023-09-12T13:01:23;9.13;;;6.47;;
2620;SDS011;1320;48.128;11.592;2023-09-12T13:03:49;6.70;;;5.93;;
2620;SDS011;1320;48.128;11.592;2023-09-12T13:06:15;7.50;;;6.77;;
2620;SDS011;1320;48.128;11.592;2023-09-12T13:08:42;7.93;;;7.00;;
2620;SDS011;1320;48.128;11.592;2023-09-12T13:11:09;14.33;;;7.07;;
2620;SDS011;1320;48.128;11.592;2023-09-12T13:13:36;9.60;;;6.70;;
2620;SDS011;1320;48.128;11.592;2023-09-12T13:16:06;7.50;;;6.80;;
2620;SDS011;1320;48.128;11.592;2023-09-12T13:18:35;12.77;;;6.70;;
2620;SDS011;1320;48.128;11.592;2023-09-12T13:21:01;8.17;;;5.60;;
2620;SDS011;1320;48.128;11.592;2023-09-12T13:23:27;6.90;;;6.20;;
2620;SDS011;1320;48.128;11.592;2023-09-12T13:25:54;8.23;;;6.03;;
2620;SDS011;1320;48.128;11.592;2023-09-12T13:28:20;6.30;;;5.70;;
2620;SDS011;1320;48.128;11.592;2023-09-12T13:30:48;5.83;;;5.23;;
2620;SDS011;1320;48.128;11.592;2023-09-12T13:33:14;6.77;;;5.63;;
2620;SDS011;1320;48.128;11.592;2023-09-12T13:35:42;8.60;;;5.50;;
2620;SDS011;1320;48.128;11.592;2023-09-12T13:38:08;6.90;;;5.93;;
2620;SDS011;1320;48.128;11.592;2023-09-12T13:40:40;7.53;;;6.47;;
2620;SDS011;1320;48.128;11.592;2023-09-12T13:43:07;7.57;;;5.83;;
2620;SDS011;1320;48.128;11.592;2023-09-12T13:45:33;6.67;;;6.07;;
2620;SDS011;1320;48.128;11.592;2023-09-12T13:47:59;5.67;;;5.07;;
2620;SDS011;1320;48.128;11.592;2023-09-12T13:50:26;6.13;;;5.53;;
2620;SDS011;1320;48.128;11.592;2023-09-12T13:52:56;6.47;;;5.40;;
2620;SDS011;1320;48.128;11.592;2023-09-12T13:55:25;7.10;;;4.93;;
2620;SDS011;1320;48.128;11.592;2023-09-12T13:57:51;6.93;;;6.23;;
2620;SDS011;1320;48.128;11.592;2023-09-12T14:00:17;6.53;;;5.50;;
2620;SDS011;1320;48.128;11.592;2023-09-12T14:02:42;7.57;;;6.10;;
2620;SDS011;1320;48.128;11.592;2023-09-12T14:05:09;7.43;;;5.67;;
2620;SDS011;1320;48.128;11.592;2023-09-12T14:07:36;6.63;;;5.73;;
2620;SDS011;1320;48.128;11.592;2023-09-12T14:10:03;7.87;;;6.37;;
2620;SDS011;1320;48.128;11.592;2023-09-12T14:12:29;6.93;;;6.10;;
2620;SDS011;1320;48.128;11.592;2023-09-12T14:14:54;8.57;;;7.23;;
2620;SDS011;1320;48.128;11.592;2023-09-12T14:17:20;8.57;;;6.90;;
2620;SDS011;1320;48.128;11.592;2023-09-12T14:19:46;8.40;;;7.60;;
2620;SDS011;1320;48.128;11.592;2023-09-12T14:22:11;10.60;;;7.40;;
2620;SDS011;1320;48.128;11.592;2023-09-12T14:24:37;8.30;;;7.60;;
2620;SDS011;1320;48.128;11.592;2023-09-12T14:27:03;12.33;;;7.77;;
2620;SDS011;1320;48.128;11.592;2023-09-12T14:29:29;8.33;;;7.63;;
2620;SDS011;1320;48.128;11.592;2023-09-12T14:31:55;8.27;;;7.37;;
2620;SDS011;1320;48.128;11.592;2023-09-12T14:34:27;9.63;;;7.70;;
2620;SDS011;1320;48.128;11.592;2023-09-12T14:36:53;14.10;;;8.30;;
2620;SDS011;1320;48.128;11.592;2023-09-12T14:39:20;12.77;;;8.07;;
2620;SDS011;1320;48.128;11.592;2023-09-12T14:41:46;7.83;;;7.13;;
2620;SDS011;1320;48.128;11.592;2023-09-12T14:44:17;11.50;;;7.93;;
2620;SDS011;1320;48.128;11.592;2023-09-12T14:46:46;16.70;;;7.70;;
2620;SDS011;1320;48.128;11.592;2023-09-12T14:49:12;8.73;;;7.80;;
2620;SDS011;1320;48.128;11.592;2023-09-12T14:51:38;13.07;;;8.57;;
2620;SDS011;1320;48.128;11.592;2023-09-12T14:54:04;9.47;;;8.47;;
2620;SDS011;1320;48.128;11.592;2023-09-12T14:56:30;8.63;;;7.73;;
2620;SDS011;1320;48.128;11.592;2023-09-12T14:58:57;9.43;;;8.53;;
2620;SDS011;1320;48.128;11.592;2023-09-12T15:01:22;8.40;;;7.70;;
2620;SDS011;1320;48.128;11.592;2023-09-12T15:03:49;8.47;;;7.67;;
2620;SDS011;1320;48.128;11.592;2023-09-12T15:06:15;8.83;;;8.03;;
2620;SDS011;1320;48.128;11.592;2023-09-12T15:08:41;10.87;;;7.70;;
2620;SDS011;1320;48.128;11.592;2023-09-12T15:11:07;8.23;;;7.43;;
2620;SDS011;1320;48.128;11.592;2023-09-12T15:13:32;8.80;;;8.00;;